Muir Army Air Field (Fort Indiantown Gap) Airport
KMUI : now visible

Airfield :











YOU CAN JOIN US ON...

 
LOGIN :

Register | Disclaimer

   EN    FR    IT 

 









Legend :    VFR   Marginal VFR   IFR   Intensive IFR   Very Intensive IFR
Visi :
Ceiling :
>= 8 km
>= 3000ft
5 to 8 km
1000 to 3000 ft
1500m to 5 km
500 to 1000 ft
800 to 1500m
200 to 500 ft
< 800m
< 200 ft
Symbols :   Thunderstorms  Fog  Heavy snow  Heavy precipitations  Wind > 20 kt






- Airport Elevation : 488 ft


KMUI - Muir Army Air Field (Fort Indiantown Gap)

CURRENT METAR :
  • 181255Z 09005KT 3SM BR OVC007 11/09 A2999 RMK AO2A SLP159 T01060094

EXPIRED METARs :
  • 181155Z 10005KT 3SM BR OVC007 11/09 A2998 RMK AO2A RAB13E31 SLP155 P0002 60002 70006 T01050094 10112 20103 52024
  • 181131Z 09005KT 2SM BR OVC006 10/09 A2997 RMK AO2A RAB13E31 SLP152
  • 181057Z 09006KT 2SM BR OVC006 10/09 A2996 RMK AO2A SLP148 T01030092
  • 181043Z 09004KT 2SM BR OVC006 10/09 A2995 RMK AO2A SLP145
  • 180955Z AUTO 09005KT 7SM OVC007 11/09 A2993 RMK AO2 SLP138 T01060092
  • 180855Z AUTO 09005KT 8SM BKN008 OVC013 11/09 A2991 RMK AO2 CIG 008V011 SLP131 60000 T01060092 53001

TAF TAF KMUI
Valid from the 18 at 11:00 until the 19 at 17:00 UTC


181100Z 1811/1917 VRB06KT 4800 -SHRA OVC005 QNH2994INS
BECMG 1901/1902 10009KT 9999 NSW OVC015 QNH3005INS TX17/1819Z TN07/1910Z
KZNY FIR / North America



MET'MAP, your aeronautical weather chart ! - Copyright ORBIFLY December 2007 - Disclaimer

ORBIFLY MET'MAP TEAM :

Programming & Development : Alexandra Zaïnal
Original concept : Baudouin d'Aumeries
Technical & hardware support : Manuel Goepfert
Assistance : Marc-Olivier Méhu




SOURCES & CREDITS :

   NOAA       Earth
Advisory